Time;durP1;ratioP1;P1;durP2;ratioP2;P2;SDS_P1;SDS_P2;PMS_P1;PMS_P2;Temp;Humidity;BMP_temperature;BMP_pressure;BME280_temperature;BME280_humidity;BME280_pressure;Samples;Min_cycle;Max_cycle;Signal;HPM_P1;HPM_P2
2022/12/27 00:01:04;;;;;;;11.10;3.23;;;5.00;99.90;;;;;;5039204;28;20203;-84
2022/12/27 00:03:33;;;;;;;13.07;4.35;;;5.00;99.90;;;;;;5046154;28;20438;-84
2022/12/27 00:16:36;;;;;;;5.63;2.87;;;5.10;99.90;;;;;;4987315;28;20212;-84
2022/12/27 00:19:21;;;;;;;11.83;3.80;;;5.10;99.90;;;;;;5002622;28;20216;-84
2022/12/27 00:25:25;;;;;;;6.50;3.00;;;5.20;99.90;;;;;;5010474;28;20260;-84
2022/12/27 00:31:15;;;;;;;11.87;3.43;;;5.10;99.90;;;;;;4999074;28;20229;-83
2022/12/27 00:50:37;;;;;;;10.97;2.83;;;5.00;99.90;;;;;;5014888;28;20192;-84
2022/12/27 00:56:44;;;;;;;8.90;3.00;;;5.00;99.90;;;;;;5029073;28;20195;-85
2022/12/27 01:02:24;;;;;;;6.27;2.43;;;4.90;99.90;;;;;;5071669;28;20212;-85
2022/12/27 01:05:01;;;;;;;6.90;2.80;;;5.00;99.90;;;;;;5058321;28;20211;-86
2022/12/27 01:10:41;;;;;;;8.50;3.17;;;4.90;99.90;;;;;;5058848;28;20214;-85
2022/12/27 01:16:31;;;;;;;8.93;2.70;;;4.90;99.90;;;;;;5068021;28;20214;-85
2022/12/27 01:19:26;;;;;;;6.73;2.53;;;5.00;99.90;;;;;;5058862;28;20256;-85
2022/12/27 01:22:01;;;;;;;10.30;3.20;;;5.00;99.90;;;;;;5076261;28;20217;-85
2022/12/27 01:27:57;;;;;;;6.57;2.87;;;4.90;99.90;;;;;;5074651;28;20257;-86
2022/12/27 01:30:50;;;;;;;6.30;3.23;;;4.80;99.90;;;;;;5087877;28;20204;-86
2022/12/27 01:33:41;;;;;;;7.07;2.80;;;4.80;99.90;;;;;;5096538;28;20206;-85
2022/12/27 01:36:43;;;;;;;6.63;3.23;;;4.80;99.90;;;;;;5096166;28;20259;-85
2022/12/27 01:39:38;;;;;;;9.27;2.77;;;4.80;99.90;;;;;;5077903;28;20226;-86
2022/12/27 01:45:15;;;;;;;8.40;3.10;;;4.80;99.90;;;;;;5075462;28;20209;-86
2022/12/27 01:50:47;;;;;;;8.90;2.63;;;4.80;99.90;;;;;;5074184;28;20207;-85
2022/12/27 01:53:23;;;;;;;5.97;2.90;;;4.90;99.90;;;;;;5074882;28;20206;-85
2022/12/27 01:56:05;;;;;;;7.87;2.90;;;4.90;99.90;;;;;;5066605;28;20269;-85
2022/12/27 01:59:00;;;;;;;2.70;1.97;;;5.00;99.90;;;;;;5059506;28;20238;-86
2022/12/27 02:01:44;;;;;;;8.87;2.77;;;4.90;99.90;;;;;;5075225;28;20214;-85
2022/12/27 02:04:45;;;;;;;10.47;3.50;;;4.90;99.90;;;;;;5094081;28;20307;-86
2022/12/27 02:07:49;;;;;;;6.53;2.60;;;4.90;99.90;;;;;;5075769;28;20202;-85
2022/12/27 02:10:26;;;;;;;5.50;2.97;;;4.90;99.90;;;;;;5051137;28;20211;-86
2022/12/27 02:13:08;;;;;;;5.77;2.37;;;4.80;99.90;;;;;;5055128;28;20199;-85
2022/12/27 02:15:49;;;;;;;7.13;2.40;;;4.80;99.90;;;;;;5066523;28;20278;-85
2022/12/27 02:21:49;;;;;;;8.93;3.23;;;4.70;99.90;;;;;;5095025;28;20202;-85
2022/12/27 02:24:46;;;;;;;9.25;4.05;;;4.70;99.90;;;;;;5092310;28;20427;-85
2022/12/27 02:28:05;;;;;;;10.03;2.93;;;4.80;99.90;;;;;;5093667;28;20213;-85
2022/12/27 02:30:51;;;;;;;8.27;3.50;;;4.80;99.90;;;;;;5081393;28;20231;-85
2022/12/27 02:33:24;;;;;;;7.63;3.03;;;4.70;99.90;;;;;;5087139;28;20212;-85
2022/12/27 02:36:08;;;;;;;13.43;3.17;;;4.70;99.90;;;;;;5069864;28;20219;-85
2022/12/27 02:39:08;;;;;;;11.07;2.80;;;4.70;99.90;;;;;;5054235;28;20222;-84
2022/12/27 02:54:47;;;;;;;5.37;2.67;;;4.70;99.90;;;;;;5063118;28;20197;-85
2022/12/27 02:57:48;;;;;;;7.67;2.97;;;4.60;99.90;;;;;;5076410;28;20270;-85
2022/12/27 03:04:02;;;;;;;14.67;2.83;;;4.70;99.90;;;;;;5068376;28;20212;-85
2022/12/27 03:07:10;;;;;;;9.33;3.20;;;4.70;99.90;;;;;;5057108;28;20213;-86
2022/12/27 03:16:16;;;;;;;8.23;2.70;;;4.60;99.90;;;;;;5078109;28;20692;-85
2022/12/27 03:33:41;;;;;;;11.10;2.60;;;4.50;99.90;;;;;;5087460;28;20220;-86
2022/12/27 03:39:30;;;;;;;7.97;2.87;;;4.50;99.90;;;;;;5072683;28;20232;-85
2022/12/27 03:48:33;;;;;;;7.63;3.27;;;4.30;99.90;;;;;;5092415;28;20196;-84
2022/12/27 03:51:15;;;;;;;8.83;2.87;;;4.30;99.90;;;;;;5092243;28;20213;-85
2022/12/27 03:53:55;;;;;;;7.13;3.63;;;4.30;99.90;;;;;;5059560;28;20237;-85
2022/12/27 03:56:31;;;;;;;11.27;2.77;;;4.20;99.90;;;;;;5074421;28;20612;-85
2022/12/27 03:59:14;;;;;;;8.90;3.07;;;4.20;99.90;;;;;;5092783;28;20226;-85
2022/12/27 04:01:49;;;;;;;9.13;2.60;;;4.20;99.90;;;;;;5087109;28;20238;-85
2022/12/27 04:04:19;;;;;;;10.33;3.17;;;4.20;99.90;;;;;;5072856;28;20627;-84
2022/12/27 04:06:55;;;;;;;8.20;3.17;;;4.20;99.90;;;;;;5073113;28;20297;-85
2022/12/27 04:38:57;;;;;;;7.67;3.23;;;4.20;99.90;;;;;;5051855;28;20488;-86
2022/12/27 04:55:38;;;;;;;7.10;2.97;;;4.20;99.90;;;;;;5086402;28;20451;-85
2022/12/27 04:58:22;;;;;;;8.53;3.50;;;4.30;99.90;;;;;;5078637;28;20474;-85
2022/12/27 05:03:50;;;;;;;5.40;2.77;;;4.30;99.90;;;;;;5097485;28;20449;-85
2022/12/27 05:06:24;;;;;;;10.60;3.40;;;4.20;99.90;;;;;;5091831;28;20442;-85
2022/12/27 05:14:43;;;;;;;7.90;3.10;;;4.20;99.90;;;;;;5086567;28;20499;-85
2022/12/27 05:17:28;;;;;;;12.33;3.37;;;4.20;99.90;;;;;;5074873;28;20798;-83
2022/12/27 05:20:00;;;;;;;8.27;3.53;;;4.20;99.90;;;;;;5084402;28;20487;-85
2022/12/27 05:28:16;;;;;;;6.17;3.37;;;4.50;99.90;;;;;;5054913;28;20456;-84
2022/12/27 05:30:50;;;;;;;8.37;3.23;;;4.20;99.90;;;;;;5074619;28;20456;-85
2022/12/27 05:33:25;;;;;;;7.70;3.20;;;4.20;99.90;;;;;;5063017;28;20448;-85
2022/12/27 05:36:09;;;;;;;9.27;3.40;;;4.30;99.90;;;;;;5072025;28;20470;-85
2022/12/27 05:39:07;;;;;;;7.37;3.00;;;4.20;99.90;;;;;;5096024;28;20478;-85
2022/12/27 05:41:59;;;;;;;11.93;3.60;;;4.30;99.90;;;;;;5077362;28;20450;-85
2022/12/27 05:44:46;;;;;;;7.50;3.30;;;4.30;99.90;;;;;;5086603;28;20426;-84
2022/12/27 05:47:27;;;;;;;10.17;3.60;;;4.30;99.90;;;;;;5095429;28;20446;-84
2022/12/27 05:49:59;;;;;;;6.60;3.70;;;4.40;99.90;;;;;;5078724;28;20455;-85
2022/12/27 05:52:39;;;;;;;10.10;3.57;;;4.30;99.90;;;;;;5085785;28;20459;-85
2022/12/27 05:55:20;;;;;;;11.93;3.90;;;4.30;99.90;;;;;;5057608;28;20452;-85
2022/12/27 05:58:13;;;;;;;7.23;4.00;;;4.30;99.90;;;;;;5075685;28;20427;-85
2022/12/27 06:01:22;;;;;;;9.90;3.57;;;4.40;99.90;;;;;;5055494;28;20471;-85
2022/12/27 06:06:52;;;;;;;7.87;3.90;;;4.30;99.90;;;;;;5054489;28;20494;-85
2022/12/27 06:09:40;;;;;;;14.47;4.30;;;4.20;99.90;;;;;;5072126;28;20450;-85
2022/12/27 06:12:22;;;;;;;8.37;3.77;;;4.20;99.90;;;;;;5075637;28;20456;-85
2022/12/27 06:15:03;;;;;;;5.87;3.70;;;4.20;99.90;;;;;;5076052;28;20489;-85
2022/12/27 06:18:05;;;;;;;9.80;3.67;;;4.20;99.90;;;;;;5088623;28;20454;-85
2022/12/27 06:20:43;;;;;;;11.03;3.60;;;4.20;99.90;;;;;;5082075;28;20458;-84
2022/12/27 06:23:17;;;;;;;9.50;4.00;;;4.20;99.90;;;;;;5054796;28;20457;-84
2022/12/27 06:28:44;;;;;;;9.73;3.80;;;4.30;99.90;;;;;;5054592;28;20483;-84
2022/12/27 06:34:58;;;;;;;9.03;4.27;;;4.20;99.90;;;;;;5054876;28;20440;-84
2022/12/27 06:37:35;;;;;;;13.63;4.40;;;4.20;99.90;;;;;;5037383;28;20440;-85
2022/12/27 06:40:11;;;;;;;7.67;4.23;;;4.20;99.90;;;;;;5083324;28;20487;-85
2022/12/27 06:42:53;;;;;;;9.17;4.17;;;4.20;99.90;;;;;;5077815;28;20439;-85
2022/12/27 06:45:39;;;;;;;7.53;3.93;;;4.20;99.90;;;;;;5062636;28;20526;-84
2022/12/27 06:48:21;;;;;;;6.63;3.80;;;4.20;99.90;;;;;;5074070;28;20444;-85
2022/12/27 06:51:26;;;;;;;10.70;4.47;;;4.20;99.90;;;;;;5056368;28;20443;-84
2022/12/27 06:56:43;;;;;;;10.93;4.23;;;4.20;99.90;;;;;;5059763;28;20456;-85
2022/12/27 06:59:36;;;;;;;9.93;4.20;;;4.20;99.90;;;;;;5056717;28;20479;-85
2022/12/27 07:02:15;;;;;;;6.77;3.70;;;4.20;99.90;;;;;;5072859;28;20435;-85
2022/12/27 07:04:46;;;;;;;12.33;3.90;;;4.20;99.90;;;;;;5073137;28;20448;-85
2022/12/27 07:07:20;;;;;;;10.47;3.80;;;4.30;99.90;;;;;;5073038;28;20846;-84
2022/12/27 07:09:54;;;;;;;10.23;3.93;;;4.30;99.90;;;;;;5089529;28;20469;-84
2022/12/27 07:19:28;;;;;;;4.47;3.47;;;4.30;99.90;;;;;;5013649;28;20437;-85
2022/12/27 07:29:42;;;;;;;11.90;5.30;;;4.30;99.90;;;;;;4946855;28;20522;-85
2022/12/27 07:32:55;;;;;;;10.57;4.27;;;4.40;99.90;;;;;;5003679;28;20476;-86
2022/12/27 07:44:36;;;;;;;6.67;4.43;;;4.40;99.90;;;;;;5058560;28;20206;-85
2022/12/27 07:47:07;;;;;;;8.93;4.40;;;4.40;99.90;;;;;;5072077;28;20451;-83
2022/12/27 07:49:40;;;;;;;13.47;4.10;;;4.40;99.90;;;;;;5063995;28;20448;-83
2022/12/27 07:52:10;;;;;;;12.07;4.40;;;4.50;99.90;;;;;;5054393;28;20238;-84
2022/12/27 07:54:48;;;;;;;9.70;4.20;;;4.50;99.90;;;;;;5052413;28;20449;-84
2022/12/27 07:57:40;;;;;;;10.37;4.90;;;4.40;99.90;;;;;;5045244;28;20442;-84
2022/12/27 08:00:41;;;;;;;9.97;3.93;;;4.50;99.90;;;;;;5058469;28;20225;-83
2022/12/27 08:03:11;;;;;;;9.10;3.40;;;4.40;99.90;;;;;;5038389;28;20203;-84
2022/12/27 08:05:57;;;;;;;12.27;5.40;;;4.40;99.90;;;;;;5037012;28;20431;-85
2022/12/27 08:08:53;;;;;;;6.60;4.10;;;4.50;99.90;;;;;;5053907;28;21032;-85
2022/12/27 08:11:37;;;;;;;7.73;3.93;;;4.50;99.90;;;;;;5054762;28;20202;-86
2022/12/27 08:14:31;;;;;;;8.20;3.63;;;4.70;99.90;;;;;;5056516;28;20175;-81
2022/12/27 08:22:39;;;;;;;10.00;3.73;;;4.70;99.90;;;;;;5052392;28;20215;-85
2022/12/27 08:28:20;;;;;;;10.00;3.60;;;4.80;99.90;;;;;;5046056;28;20207;-84
2022/12/27 08:31:11;;;;;;;16.67;4.43;;;4.90;99.90;;;;;;5055565;28;20623;-84
2022/12/27 08:36:45;;;;;;;10.10;3.60;;;5.20;99.90;;;;;;5056597;28;20267;-83
2022/12/27 08:39:19;;;;;;;10.83;3.20;;;5.20;99.90;;;;;;5062654;28;20229;-84
2022/12/27 08:44:48;;;;;;;13.70;3.90;;;5.30;99.90;;;;;;5037694;28;20200;-85
2022/12/27 08:50:34;;;;;;;8.73;3.40;;;5.10;99.90;;;;;;5052893;28;20207;-85
2022/12/27 08:53:36;;;;;;;5.87;2.70;;;5.10;99.90;;;;;;5055970;28;20234;-84
2022/12/27 08:56:15;;;;;;;13.27;7.30;;;5.10;99.90;;;;;;5039140;28;20214;-82
2022/12/27 08:59:08;;;;;;;10.87;3.30;;;5.20;99.90;;;;;;5056625;28;20206;-84
2022/12/27 09:01:45;;;;;;;10.97;4.47;;;5.30;99.90;;;;;;5040423;28;20193;-82
2022/12/27 09:04:42;;;;;;;7.40;3.13;;;5.30;99.90;;;;;;5059173;28;20230;-85
2022/12/27 09:07:17;;;;;;;5.77;3.23;;;5.20;99.90;;;;;;5058730;28;20203;-85
2022/12/27 09:09:48;;;;;;;6.57;3.00;;;5.20;99.90;;;;;;5059812;28;20199;-84
2022/12/27 09:12:34;;;;;;;6.87;4.20;;;5.20;99.90;;;;;;5058749;28;20675;-84
2022/12/27 09:15:11;;;;;;;8.87;3.03;;;5.30;99.90;;;;;;5057715;28;20211;-84
2022/12/27 09:17:57;;;;;;;8.37;3.27;;;5.30;99.90;;;;;;5056187;28;20203;-84
2022/12/27 09:23:23;;;;;;;6.80;2.93;;;5.40;99.90;;;;;;5056084;28;20232;-85
2022/12/27 09:28:50;;;;;;;6.83;3.40;;;5.40;99.90;;;;;;5057495;28;20564;-84
2022/12/27 09:34:35;;;;;;;7.83;3.23;;;5.50;99.90;;;;;;5058413;28;20198;-85
2022/12/27 09:40:52;;;;;;;9.63;3.80;;;5.50;99.90;;;;;;5056491;28;20227;-84
2022/12/27 09:43:42;;;;;;;6.67;3.10;;;5.50;99.90;;;;;;5055308;28;20267;-84
2022/12/27 09:46:44;;;;;;;7.97;3.00;;;5.60;99.90;;;;;;5041871;28;20215;-84
2022/12/27 09:52:54;;;;;;;6.57;2.90;;;5.80;99.90;;;;;;5072116;28;20212;-84
2022/12/27 10:08:49;;;;;;;4.03;2.57;;;6.20;99.90;;;;;;5076840;28;20241;-86
2022/12/27 10:21:29;;;;;;;9.03;3.27;;;6.20;99.90;;;;;;5078582;28;20260;-83
2022/12/27 10:34:31;;;;;;;10.93;4.63;;;6.60;99.90;;;;;;5098577;28;20227;-85
2022/12/27 10:37:31;;;;;;;6.60;3.10;;;6.60;99.90;;;;;;5062438;28;20201;-85
2022/12/27 10:40:29;;;;;;;7.10;3.03;;;6.50;99.90;;;;;;5097114;28;20272;-83
2022/12/27 10:43:20;;;;;;;12.17;3.30;;;6.70;99.90;;;;;;5097392;28;20202;-84
2022/12/27 10:52:01;;;;;;;5.30;2.70;;;6.90;99.90;;;;;;5081303;28;20202;-85
2022/12/27 10:58:01;;;;;;;8.37;3.07;;;7.10;99.90;;;;;;5077205;28;20198;-83
2022/12/27 11:00:48;;;;;;;10.30;3.80;;;7.20;99.90;;;;;;5075700;28;20441;-83
2022/12/27 11:06:36;;;;;;;10.27;3.53;;;7.40;99.90;;;;;;5093791;28;20216;-84
2022/12/27 11:12:58;;;;;;;7.87;3.33;;;7.50;99.90;;;;;;5076001;28;20183;-82
2022/12/27 11:15:58;;;;;;;4.93;2.90;;;7.60;99.90;;;;;;5070467;28;20203;-82
2022/12/27 11:18:28;;;;;;;11.20;2.83;;;7.80;99.90;;;;;;5072255;28;20225;-82
2022/12/27 11:21:17;;;;;;;9.37;2.57;;;7.80;99.90;;;;;;5074779;28;20214;-82
2022/12/27 11:23:58;;;;;;;4.57;2.57;;;7.80;99.90;;;;;;5071801;28;20250;-82
2022/12/27 11:29:27;;;;;;;7.70;3.85;;;7.70;99.90;;;;;;5069988;28;20433;-83
2022/12/27 11:32:27;;;;;;;9.00;2.70;;;7.70;99.90;;;;;;5055110;28;20225;-82
2022/12/27 11:35:19;;;;;;;6.97;2.67;;;7.80;99.90;;;;;;5080206;28;20202;-83
2022/12/27 11:44:44;;;;;;;10.57;2.73;;;8.10;99.90;;;;;;5072405;28;20198;-82
2022/12/27 11:47:32;;;;;;;5.27;2.97;;;8.10;99.90;;;;;;5037136;28;20202;-81
2022/12/27 11:50:24;;;;;;;5.53;2.93;;;8.10;99.90;;;;;;5054257;28;20207;-81
2022/12/27 11:53:26;;;;;;;4.80;2.23;;;7.90;99.90;;;;;;5048514;28;20278;-81
2022/12/27 11:56:24;;;;;;;8.97;2.90;;;7.90;99.90;;;;;;5069364;28;20562;-80
2022/12/27 11:59:11;;;;;;;5.13;2.80;;;7.90;99.90;;;;;;5075698;28;20761;-81
2022/12/27 12:02:16;;;;;;;5.33;2.90;;;7.90;99.90;;;;;;5066789;28;20238;-81
2022/12/27 12:05:16;;;;;;;5.40;2.53;;;8.00;99.90;;;;;;5067082;28;20597;-80
2022/12/27 12:08:15;;;;;;;7.80;2.93;;;8.00;99.90;;;;;;5067185;28;20198;-79
2022/12/27 12:10:52;;;;;;;5.80;2.70;;;8.00;99.90;;;;;;5068333;28;20620;-79
2022/12/27 12:13:45;;;;;;;9.27;3.00;;;8.00;99.90;;;;;;5079950;28;20292;-80
2022/12/27 12:23:07;;;;;;;7.47;3.00;;;8.10;99.90;;;;;;5056431;28;20259;-80
2022/12/27 12:48:56;;;;;;;7.60;3.13;;;8.20;99.90;;;;;;5035473;28;20204;-85
2022/12/27 12:55:26;;;;;;;8.50;3.00;;;8.30;99.90;;;;;;5032548;28;20208;-87
2022/12/27 13:01:37;;;;;;;9.30;2.90;;;8.50;99.90;;;;;;5023598;28;20291;-86
2022/12/27 13:05:01;;;;;;;10.10;2.70;;;8.70;99.90;;;;;;5035121;28;20687;-86
2022/12/27 13:08:07;;;;;;;6.93;2.37;;;8.70;99.90;;;;;;5033403;28;20263;-85
2022/12/27 13:11:30;;;;;;;7.53;2.40;;;8.60;99.90;;;;;;5034688;28;20208;-87
2022/12/27 13:27:51;;;;;;;7.03;2.50;;;8.60;99.90;;;;;;5072677;23;20313;-94
2022/12/27 13:31:05;;;;;;;7.60;2.33;;;8.50;99.90;;;;;;5079165;28;20289;-93
2022/12/27 13:34:08;;;;;;;5.77;2.67;;;8.60;99.90;;;;;;5061565;28;20258;-93
2022/12/27 13:36:53;;;;;;;4.50;2.10;;;8.70;99.90;;;;;;5065795;28;20292;-91
2022/12/27 13:39:41;;;;;;;8.03;2.27;;;8.80;99.90;;;;;;5060682;28;20249;-91
2022/12/27 13:42:36;;;;;;;5.97;2.07;;;8.80;99.90;;;;;;5038444;28;20663;-93
2022/12/27 13:45:20;;;;;;;3.77;2.50;;;8.90;99.90;;;;;;5057010;28;20730;-91
2022/12/27 13:47:59;;;;;;;6.17;2.40;;;8.90;99.90;;;;;;5057987;28;20203;-93
2022/12/27 13:50:54;;;;;;;10.57;3.93;;;9.00;99.90;;;;;;5057309;28;20587;-91
2022/12/27 13:53:57;;;;;;;6.93;2.80;;;9.00;99.90;;;;;;5039090;28;20198;-91
2022/12/27 13:56:35;;;;;;;8.95;3.47;;;9.00;99.90;;;;;;5056668;28;20532;-92
2022/12/27 13:59:25;;;;;;;9.83;3.03;;;9.10;99.90;;;;;;5036445;28;20652;-93
2022/12/27 14:02:12;;;;;;;5.70;2.83;;;9.20;99.90;;;;;;5042889;28;20229;-92
2022/12/27 14:05:04;;;;;;;9.50;2.97;;;9.00;99.90;;;;;;5057378;28;20198;-93
2022/12/27 14:07:56;;;;;;;7.20;2.70;;;8.90;99.90;;;;;;5055928;28;20202;-93
2022/12/27 14:10:36;;;;;;;6.67;2.40;;;9.00;99.90;;;;;;5056209;28;20223;-91
2022/12/27 14:13:06;;;;;;;4.93;2.70;;;9.00;99.90;;;;;;5045152;28;20206;-94
2022/12/27 14:16:07;;;;;;;6.17;2.73;;;8.90;99.90;;;;;;5068010;28;20203;-93
2022/12/27 14:18:59;;;;;;;8.77;2.70;;;8.90;99.90;;;;;;5060143;28;20265;-94
2022/12/27 14:21:57;;;;;;;8.30;2.40;;;9.00;99.90;;;;;;5057949;28;20683;-93
2022/12/27 14:24:59;;;;;;;7.00;2.67;;;8.90;99.90;;;;;;5060189;28;20237;-93
2022/12/27 14:27:58;;;;;;;8.37;2.90;;;9.00;99.90;;;;;;5056208;28;20465;-92
2022/12/27 14:30:58;;;;;;;7.73;2.90;;;9.00;99.90;;;;;;5046596;28;20555;-91
2022/12/27 14:33:55;;;;;;;9.67;2.73;;;9.00;99.90;;;;;;5051725;28;20206;-92
2022/12/27 14:36:54;;;;;;;5.47;2.63;;;9.00;99.90;;;;;;5058141;28;20199;-93
2022/12/27 14:40:05;;;;;;;6.37;2.90;;;8.90;99.90;;;;;;5058524;28;20230;-92
2022/12/27 14:56:14;;;;;;;10.23;2.53;;;8.80;99.90;;;;;;5010471;28;20205;-93
2022/12/27 15:06:28;;;;;;;6.23;2.30;;;8.50;99.90;;;;;;5038785;28;20211;-92
2022/12/27 15:18:42;;;;;;;4.87;2.30;;;8.40;99.90;;;;;;5056619;28;20245;-83
2022/12/27 15:21:58;;;;;;;4.53;2.27;;;8.40;99.90;;;;;;5026066;28;20211;-82
2022/12/27 15:25:23;;;;;;;7.90;2.53;;;8.30;99.90;;;;;;5053796;28;20213;-83
2022/12/27 15:31:12;;;;;;;5.33;2.27;;;8.20;99.90;;;;;;5051937;28;20207;-81
2022/12/27 15:34:25;;;;;;;8.50;4.10;;;8.30;99.90;;;;;;5051621;28;20206;-81
2022/12/27 15:43:31;;;;;;;4.40;2.20;;;8.30;99.90;;;;;;5054815;28;20206;-85
2022/12/27 15:46:19;;;;;;;8.70;2.63;;;8.30;99.90;;;;;;5026365;28;20207;-80
2022/12/27 15:49:17;;;;;;;7.00;2.90;;;8.20;99.90;;;;;;5045055;28;20263;-80
2022/12/27 15:51:59;;;;;;;7.17;2.53;;;8.10;99.90;;;;;;5055737;28;20198;-81
2022/12/27 15:54:45;;;;;;;6.03;2.50;;;8.10;99.90;;;;;;5067519;28;20226;-80
2022/12/27 15:57:53;;;;;;;4.77;2.20;;;8.10;99.90;;;;;;5067533;28;20245;-80
2022/12/27 16:00:34;;;;;;;8.90;2.77;;;8.00;99.90;;;;;;5030591;28;20209;-81
2022/12/27 16:03:02;;;;;;;8.40;2.80;;;8.00;99.90;;;;;;5066198;28;20262;-81
2022/12/27 16:05:51;;;;;;;6.43;2.90;;;8.00;99.90;;;;;;5067614;28;20279;-80
2022/12/27 16:08:35;;;;;;;7.67;2.70;;;8.00;99.90;;;;;;5046250;28;20207;-83
2022/12/27 16:11:07;;;;;;;5.20;2.77;;;8.00;99.90;;;;;;5047526;28;20230;-80
2022/12/27 16:13:42;;;;;;;8.13;2.73;;;7.90;99.90;;;;;;5039588;28;20223;-79
2022/12/27 16:16:55;;;;;;;12.10;3.20;;;7.80;99.90;;;;;;5043119;28;20201;-80
2022/12/27 16:20:00;;;;;;;11.90;3.03;;;7.80;99.90;;;;;;5041142;28;20557;-79
2022/12/27 16:22:38;;;;;;;5.50;2.63;;;7.80;99.90;;;;;;5018636;28;20230;-79
2022/12/27 16:25:25;;;;;;;8.70;2.73;;;7.70;99.90;;;;;;5030722;28;20227;-80
2022/12/27 16:27:59;;;;;;;10.07;3.60;;;7.80;99.90;;;;;;5036806;28;20788;-80
2022/12/27 16:30:52;;;;;;;7.20;2.93;;;7.80;99.90;;;;;;5036125;28;20195;-79
2022/12/27 16:33:40;;;;;;;9.90;3.30;;;7.80;99.90;;;;;;5016712;28;20211;-79
2022/12/27 16:36:20;;;;;;;6.30;2.97;;;7.70;99.90;;;;;;5030994;28;20290;-82
2022/12/27 16:39:27;;;;;;;5.43;2.50;;;7.80;99.90;;;;;;5027238;28;20207;-83
2022/12/27 16:42:07;;;;;;;12.37;3.40;;;7.70;99.90;;;;;;5023547;28;20303;-79
2022/12/27 16:45:01;;;;;;;5.70;2.57;;;7.60;99.90;;;;;;5018544;28;20199;-79
2022/12/27 16:47:54;;;;;;;4.53;2.80;;;7.70;99.90;;;;;;5020565;28;20212;-81
2022/12/27 16:50:53;;;;;;;5.40;2.57;;;7.70;99.90;;;;;;5025369;28;20208;-79
2022/12/27 16:53:42;;;;;;;7.77;2.87;;;7.60;99.90;;;;;;5011329;28;20210;-80
2022/12/27 16:56:23;;;;;;;7.90;3.30;;;7.70;99.90;;;;;;5019219;28;20216;-82
2022/12/27 16:58:52;;;;;;;7.63;2.50;;;7.80;99.90;;;;;;5033805;28;20187;-82
2022/12/27 17:01:53;;;;;;;10.40;3.63;;;7.80;99.90;;;;;;5034923;28;20238;-82
2022/12/27 17:04:57;;;;;;;7.33;2.90;;;7.80;99.90;;;;;;5036983;28;20266;-81
2022/12/27 17:08:11;;;;;;;5.70;2.67;;;7.80;99.90;;;;;;5056723;28;20229;-85
2022/12/27 17:11:01;;;;;;;4.70;2.30;;;7.60;99.90;;;;;;5021442;28;20279;-85
2022/12/27 17:13:49;;;;;;;6.60;2.90;;;7.60;99.90;;;;;;5038455;28;20199;-86
2022/12/27 17:16:32;;;;;;;6.00;2.70;;;7.50;99.90;;;;;;5055583;28;20207;-85
2022/12/27 17:19:10;;;;;;;9.37;3.73;;;7.60;99.90;;;;;;5039067;28;20183;-85
2022/12/27 17:21:57;;;;;;;10.07;4.00;;;7.60;99.90;;;;;;5057644;28;20216;-84
2022/12/27 17:27:59;;;;;;;8.90;2.97;;;7.50;99.90;;;;;;5057127;28;20215;-83
2022/12/27 17:33:31;;;;;;;7.57;3.00;;;7.40;99.90;;;;;;5035753;28;20208;-84
2022/12/27 17:36:29;;;;;;;8.00;3.53;;;7.40;99.90;;;;;;5022139;28;20242;-84
2022/12/27 17:39:35;;;;;;;8.10;3.90;;;7.50;99.90;;;;;;5025502;28;20193;-84
2022/12/27 17:48:26;;;;;;;8.73;3.63;;;7.30;99.90;;;;;;5025501;28;20201;-84
2022/12/27 17:51:01;;;;;;;7.03;3.50;;;7.20;99.90;;;;;;5013789;28;20208;-84
2022/12/27 18:02:34;;;;;;;6.37;3.40;;;7.10;99.90;;;;;;4996955;27;5016106;-85
2022/12/27 18:05:07;;;;;;;7.67;3.40;;;7.30;99.90;;;;;;5189992;27;20198;-85
2022/12/27 18:07:40;;;;;;;5.60;3.60;;;7.20;99.90;;;;;;5190581;27;20227;-85
2022/12/27 18:10:29;;;;;;;7.80;3.97;;;7.20;99.90;;;;;;5173518;27;20208;-84
2022/12/27 18:13:04;;;;;;;10.17;3.50;;;7.20;99.90;;;;;;5190107;27;20198;-84
2022/12/27 18:15:36;;;;;;;7.57;3.40;;;7.20;99.90;;;;;;5190104;27;20231;-85
2022/12/27 18:18:14;;;;;;;8.23;3.37;;;7.10;99.90;;;;;;5188988;27;20202;-84
2022/12/27 18:20:44;;;;;;;10.53;2.90;;;7.00;99.90;;;;;;5189126;27;20232;-84
2022/12/27 18:23:19;;;;;;;5.00;2.83;;;6.90;99.90;;;;;;5189617;27;20198;-85
2022/12/27 18:25:57;;;;;;;9.73;3.70;;;6.90;99.90;;;;;;5178521;27;20436;-84
2022/12/27 18:28:29;;;;;;;9.27;3.97;;;6.90;99.90;;;;;;5168052;27;20203;-85
2022/12/27 18:31:00;;;;;;;7.50;3.40;;;6.90;99.90;;;;;;5168290;27;20196;-84
2022/12/27 18:33:53;;;;;;;9.43;4.20;;;6.80;99.90;;;;;;5152529;27;20186;-85
2022/12/27 18:36:35;;;;;;;11.67;4.10;;;6.80;99.90;;;;;;5153690;27;20195;-85
2022/12/27 18:39:29;;;;;;;6.77;2.93;;;6.80;99.90;;;;;;5170502;27;20194;-85
2022/12/27 18:42:03;;;;;;;6.43;2.80;;;6.80;99.90;;;;;;5169131;27;20282;-84
2022/12/27 18:44:42;;;;;;;5.57;3.07;;;6.80;99.90;;;;;;5169887;27;20203;-85
2022/12/27 18:47:39;;;;;;;6.40;2.73;;;6.80;99.90;;;;;;5168218;27;20213;-85
2022/12/27 18:50:20;;;;;;;5.33;3.20;;;6.70;99.90;;;;;;5169071;27;20290;-84
2022/12/27 18:53:08;;;;;;;9.57;3.40;;;6.70;99.90;;;;;;5170870;27;20204;-87
2022/12/27 18:55:57;;;;;;;8.77;4.40;;;6.70;99.90;;;;;;5172947;27;20940;-85
2022/12/27 18:58:32;;;;;;;6.87;3.40;;;6.80;99.90;;;;;;5173279;27;20191;-84
2022/12/27 19:04:45;;;;;;;5.83;3.03;;;6.80;99.90;;;;;;5152789;27;20193;-84
2022/12/27 19:07:42;;;;;;;4.77;2.77;;;6.70;99.90;;;;;;5157263;27;20179;-85
2022/12/27 19:10:48;;;;;;;7.13;3.17;;;6.70;99.90;;;;;;5153609;27;20198;-85
2022/12/27 19:16:38;;;;;;;7.03;2.77;;;6.70;99.90;;;;;;5158348;27;20192;-84
2022/12/27 19:19:28;;;;;;;7.27;3.07;;;6.70;99.90;;;;;;5157329;27;20219;-84
2022/12/27 19:25:42;;;;;;;7.50;4.07;;;6.80;99.90;;;;;;5160132;27;20407;-84
2022/12/27 19:28:38;;;;;;;8.17;3.10;;;7.00;99.90;;;;;;5158651;27;20184;-85
2022/12/27 19:31:50;;;;;;;7.87;2.93;;;7.00;99.90;;;;;;5157412;27;20202;-85
2022/12/27 19:34:32;;;;;;;3.80;2.33;;;7.00;99.90;;;;;;5159561;27;20207;-85
2022/12/27 19:37:11;;;;;;;9.27;3.63;;;6.90;99.90;;;;;;5142024;27;20195;-84
2022/12/27 19:40:10;;;;;;;6.17;2.70;;;6.90;99.90;;;;;;5157186;27;20206;-86
2022/12/27 19:42:50;;;;;;;5.53;2.80;;;6.90;99.90;;;;;;5158905;27;20219;-84
2022/12/27 19:46:01;;;;;;;5.67;2.93;;;6.90;99.90;;;;;;5159711;27;20188;-85
2022/12/27 19:48:59;;;;;;;6.07;3.20;;;6.80;99.90;;;;;;5138532;28;20204;-84
2022/12/27 19:51:48;;;;;;;6.07;2.97;;;6.90;99.90;;;;;;5137627;28;20275;-84
2022/12/27 19:57:43;;;;;;;6.10;3.00;;;6.80;99.90;;;;;;5137636;28;20200;-85
2022/12/27 20:03:56;;;;;;;4.73;2.77;;;6.80;99.90;;;;;;5139885;28;20240;-85
2022/12/27 20:09:31;;;;;;;8.00;3.13;;;6.90;99.90;;;;;;5137360;28;20250;-84
2022/12/27 20:12:10;;;;;;;8.67;3.17;;;6.80;99.90;;;;;;5136808;28;20188;-84
2022/12/27 20:14:51;;;;;;;6.60;2.43;;;6.90;99.90;;;;;;5136294;28;20223;-84
2022/12/27 20:17:46;;;;;;;7.63;2.87;;;6.90;99.90;;;;;;5119197;28;20208;-85
2022/12/27 20:26:12;;;;;;;4.37;2.70;;;7.10;99.90;;;;;;5137763;28;20200;-84
2022/12/27 20:28:54;;;;;;;9.00;3.23;;;7.10;99.90;;;;;;5138174;28;20224;-84
2022/12/27 20:35:19;;;;;;;9.13;2.70;;;6.90;99.90;;;;;;5137142;28;20211;-85
2022/12/27 20:37:59;;;;;;;5.73;3.00;;;7.00;99.90;;;;;;5137771;28;20196;-84
2022/12/27 20:40:34;;;;;;;4.07;2.30;;;6.90;99.90;;;;;;5118679;28;20201;-85
2022/12/27 20:49:41;;;;;;;5.57;2.60;;;7.00;99.90;;;;;;5135162;28;20201;-83
2022/12/27 20:55:52;;;;;;;10.10;3.13;;;7.10;99.90;;;;;;5136055;28;20177;-84
2022/12/27 21:01:32;;;;;;;7.20;3.40;;;7.10;99.90;;;;;;5136898;28;20227;-84
2022/12/27 21:04:06;;;;;;;7.87;3.20;;;7.10;99.90;;;;;;5134590;28;20245;-84
2022/12/27 21:06:45;;;;;;;8.23;2.60;;;7.20;99.90;;;;;;5132440;28;20204;-84
2022/12/27 21:09:42;;;;;;;7.97;2.53;;;7.20;99.90;;;;;;5131323;28;20201;-84
2022/12/27 21:12:16;;;;;;;7.53;2.60;;;7.10;99.90;;;;;;5130346;28;20203;-84
2022/12/27 21:18:44;;;;;;;5.13;2.80;;;7.20;99.90;;;;;;5129969;28;20204;-83
2022/12/27 21:21:35;;;;;;;7.87;3.60;;;7.20;99.90;;;;;;5125856;28;20471;-83
2022/12/27 21:27:40;;;;;;;6.73;2.90;;;7.30;99.90;;;;;;5148711;27;20221;-83
2022/12/27 21:37:32;;;;;;;9.00;3.53;;;7.40;99.90;;;;;;5156023;27;20174;-86
2022/12/27 21:40:02;;;;;;;9.50;3.77;;;7.40;99.90;;;;;;5151550;27;20226;-84
2022/12/27 21:45:25;;;;;;;8.87;3.10;;;7.50;99.90;;;;;;5151092;27;20215;-84
2022/12/27 22:20:42;;;;;;;10.05;4.80;;;7.40;99.90;;;;;;5094972;28;20415;-85
2022/12/27 23:00:53;;;;;;;9.13;5.00;;;7.30;99.90;;;;;;5044441;28;20237;-84
2022/12/27 23:03:52;;;;;;;8.73;4.70;;;7.30;99.90;;;;;;5056913;28;20194;-83
2022/12/27 23:09:37;;;;;;;8.17;4.53;;;7.20;99.90;;;;;;5054184;28;20199;-83
2022/12/27 23:19:08;;;;;;;8.55;5.38;;;7.40;99.90;;;;;;5074284;28;20448;-84
